Nags Head, North Carolina
Current Conditions -  °F | °C
As of 1:55 PM on Friday 21 Nov 2014 (Local Time) from KFFA Reporting Station
Clear Clear  
Wind Chill: 37°   Ceiling: Unl
Heat Index: 44°   Visibility: 10mi
Dew Point: 17°   Wind: 12mph
Humidity: 34%   Direction: 330°NNW
Pressure: 30.39"   Gusts: 18mph
Location:  35.96°N, 75.62°W
Report Text: KFFA 211855Z AUTO 33010G16KT 300V010 10SM CLR 06/M08 A3039 RMK AO2 T00641084
Loading
Personal Weather Stations






























Interactive Weather Map New forecast layout! Learn more

10-Day Weather Forecast

Advertisements
Track Severe Weather on mobile